Gerli, Argentina
Current Conditions -  °F | °C
As of 10:00 AM on Sunday 23 Nov 2014 (Local Time) from SABE Reporting Station
Clear Clear  
Wind Chill: 73°   Ceiling: Unl
Heat Index: 73°   Visibility: 6mi
Dew Point: 57°   Wind: 10mph
Humidity: 57%   Direction: 350°N
Pressure: 29.88"   Gusts: NA
Location:  34.7°S, 58.38°W
Report Text: SABE 231300Z 35009KT CAVOK 23/14 Q1012
Loading
Personal Weather Stations






























Interactive Weather Map New forecast layout! Learn more

10-Day Weather Forecast

Advertisements
Track Severe Weather on mobile